createdAt,value
2023-05-06T00:00:06.924Z,11.82
2023-05-06T00:01:44.684Z,11.86
2023-05-06T00:03:17.321Z,11.89
2023-05-06T00:04:52.111Z,11.89
2023-05-06T00:06:24.242Z,11.91
2023-05-06T00:07:57.457Z,11.94
2023-05-06T00:09:30.661Z,11.97
2023-05-06T00:11:02.956Z,11.97
2023-05-06T00:12:36.129Z,11.99
2023-05-06T00:14:09.308Z,12.03
2023-05-06T00:15:41.799Z,12.05
2023-05-06T00:17:15.413Z,12.10
2023-05-06T00:18:48.593Z,12.14
2023-05-06T00:20:23.225Z,12.18
2023-05-06T00:21:56.030Z,12.19
2023-05-06T00:23:29.240Z,12.20
2023-05-06T00:25:01.489Z,12.07
2023-05-06T00:26:34.636Z,11.94
2023-05-06T00:28:06.824Z,11.82
2023-05-06T00:29:40.033Z,11.75
2023-05-06T00:31:12.320Z,11.66
2023-05-06T00:32:45.477Z,11.56
2023-05-06T00:34:19.287Z,11.57
2023-05-06T00:35:54.012Z,11.54
2023-05-06T00:37:27.279Z,11.56
2023-05-06T00:38:59.657Z,11.58
2023-05-06T00:40:32.942Z,11.53
2023-05-06T00:42:06.236Z,11.53
2023-05-06T00:43:39.617Z,11.54
2023-05-06T00:45:12.992Z,11.54
2023-05-06T00:46:46.359Z,11.51
2023-05-06T00:48:20.455Z,11.53
2023-05-06T00:49:52.536Z,11.55
2023-05-06T00:51:27.409Z,11.60
2023-05-06T00:53:03.428Z,11.61
2023-05-06T00:54:37.554Z,11.61
2023-05-06T00:56:09.713Z,11.60
2023-05-06T00:57:43.693Z,11.61
2023-05-06T00:59:17.349Z,11.62
2023-05-06T01:00:52.468Z,11.63
2023-05-06T01:02:33.137Z,11.68
2023-05-06T01:04:13.487Z,11.72
2023-05-06T01:05:55.740Z,11.75
2023-05-06T01:07:45.888Z,11.78
2023-05-06T01:09:25.142Z,11.82
2023-05-06T01:11:02.668Z,11.82
2023-05-06T01:12:42.723Z,11.85
2023-05-06T01:14:23.157Z,11.86
2023-05-06T01:16:00.611Z,11.83
2023-05-06T01:17:36.066Z,11.84
2023-05-06T01:19:12.804Z,11.86
2023-05-06T01:20:49.947Z,11.89
2023-05-06T01:22:26.059Z,11.80
2023-05-06T01:24:00.833Z,11.69
2023-05-06T01:25:33.954Z,11.62
2023-05-06T01:27:07.220Z,11.61
2023-05-06T01:28:40.412Z,11.62
2023-05-06T01:30:14.736Z,11.68
2023-05-06T01:31:51.446Z,11.74
2023-05-06T01:33:33.390Z,11.72
2023-05-06T01:35:17.094Z,11.69
2023-05-06T01:36:59.636Z,11.64
2023-05-06T01:38:39.014Z,11.65
2023-05-06T01:40:16.127Z,11.62
2023-05-06T01:41:52.905Z,11.65
2023-05-06T01:43:27.732Z,11.68
2023-05-06T01:45:06.107Z,11.72
2023-05-06T01:46:39.705Z,11.67
2023-05-06T01:48:12.334Z,11.64
2023-05-06T01:49:45.529Z,11.61
2023-05-06T01:51:17.787Z,11.58
2023-05-06T01:52:58.720Z,11.67
2023-05-06T01:54:32.283Z,11.64
2023-05-06T01:56:10.165Z,11.64
2023-05-06T01:57:44.215Z,11.65
2023-05-06T01:59:16.443Z,11.63
2023-05-06T02:00:49.985Z,11.61
2023-05-06T02:02:22.186Z,11.61
2023-05-06T02:03:55.816Z,11.59
2023-05-06T02:05:28.295Z,11.62
2023-05-06T02:07:03.388Z,11.66
2023-05-06T02:08:36.572Z,11.71
2023-05-06T02:10:09.794Z,11.74
2023-05-06T02:11:47.938Z,11.74
2023-05-06T02:13:20.555Z,11.68
2023-05-06T02:14:53.855Z,11.73
2023-05-06T02:16:29.114Z,11.72
2023-05-06T02:18:02.389Z,11.70
2023-05-06T02:19:36.109Z,11.65
2023-05-06T02:21:09.719Z,11.66
2023-05-06T02:22:42.854Z,11.64
2023-05-06T02:24:16.056Z,11.64
2023-05-06T02:25:50.430Z,11.66
2023-05-06T02:27:25.046Z,11.66
2023-05-06T02:28:58.199Z,11.72
2023-05-06T02:30:32.336Z,11.72
2023-05-06T02:32:05.187Z,11.67
2023-05-06T02:33:38.333Z,11.74
2023-05-06T02:35:11.612Z,11.76
2023-05-06T02:36:44.893Z,11.78
2023-05-06T02:38:18.453Z,11.77
2023-05-06T02:39:51.627Z,11.78
2023-05-06T02:41:24.716Z,11.78
2023-05-06T02:43:00.002Z,11.80
2023-05-06T02:44:33.634Z,11.79
2023-05-06T02:46:06.965Z,11.81
2023-05-06T02:47:40.726Z,11.81
2023-05-06T02:49:12.876Z,11.79
2023-05-06T02:50:46.413Z,11.79
2023-05-06T02:52:19.566Z,11.73
2023-05-06T02:53:52.723Z,11.70
2023-05-06T02:55:25.853Z,11.70
2023-05-06T02:56:59.137Z,11.72
2023-05-06T02:58:33.691Z,11.75
2023-05-06T03:00:08.272Z,11.75
2023-05-06T03:01:41.483Z,11.78
2023-05-06T03:03:13.990Z,11.79
2023-05-06T03:04:47.319Z,11.78
2023-05-06T03:06:20.426Z,11.75
2023-05-06T03:07:53.794Z,11.72
2023-05-06T03:09:27.887Z,11.63
2023-05-06T03:11:01.098Z,11.55
2023-05-06T03:12:33.366Z,11.49
2023-05-06T03:14:08.005Z,11.45
2023-05-06T03:15:41.949Z,11.44
2023-05-06T03:17:18.173Z,11.40
2023-05-06T03:18:51.382Z,11.36
2023-05-06T03:20:25.258Z,11.36
2023-05-06T03:22:01.889Z,11.38
2023-05-06T03:23:36.050Z,11.39
2023-05-06T03:25:10.480Z,11.45
2023-05-06T03:26:45.638Z,11.48
2023-05-06T03:28:20.342Z,11.49
2023-05-06T03:29:55.023Z,11.49
2023-05-06T03:31:29.946Z,11.50
2023-05-06T03:33:05.292Z,11.51
2023-05-06T03:34:39.983Z,11.53
2023-05-06T03:36:15.155Z,11.56
2023-05-06T03:37:50.702Z,11.54
2023-05-06T03:39:23.994Z,11.47
2023-05-06T03:40:57.042Z,11.46
2023-05-06T03:42:31.111Z,11.42
2023-05-06T03:44:05.116Z,11.42
2023-05-06T03:45:39.763Z,11.46
2023-05-06T03:47:12.419Z,11.47
2023-05-06T03:48:45.572Z,11.50
2023-05-06T03:50:21.835Z,11.53
2023-05-06T03:51:55.146Z,11.51
2023-05-06T03:53:31.003Z,11.51
2023-05-06T03:55:04.990Z,11.57
2023-05-06T03:56:38.272Z,11.63
2023-05-06T03:58:12.486Z,11.65
2023-05-06T03:59:48.184Z,11.69
2023-05-06T04:01:22.807Z,11.73
2023-05-06T04:02:55.021Z,11.79
2023-05-06T04:04:40.553Z,11.85
2023-05-06T04:06:14.095Z,11.89
2023-05-06T04:07:47.162Z,11.96
2023-05-06T04:09:19.714Z,12.03
2023-05-06T04:10:54.767Z,12.09
2023-05-06T04:12:34.141Z,12.14
2023-05-06T04:14:07.488Z,12.19
2023-05-06T04:15:42.676Z,12.23
2023-05-06T04:17:21.216Z,12.26
2023-05-06T04:18:57.675Z,12.24
2023-05-06T04:20:31.503Z,12.21
2023-05-06T04:22:04.857Z,12.15
2023-05-06T04:23:38.044Z,12.13
2023-05-06T04:25:12.485Z,12.11
2023-05-06T04:26:46.744Z,12.15
2023-05-06T04:28:20.804Z,12.22
2023-05-06T04:29:56.935Z,12.26
2023-05-06T04:31:30.580Z,12.30
2023-05-06T04:33:09.806Z,12.35
2023-05-06T04:34:43.614Z,12.44
2023-05-06T04:36:20.933Z,12.48
2023-05-06T04:38:20.529Z,12.44
2023-05-06T04:39:54.496Z,12.34
2023-05-06T04:41:31.293Z,12.38
2023-05-06T04:43:04.823Z,12.39
2023-05-06T04:44:38.875Z,12.42
2023-05-06T04:46:15.551Z,12.50
2023-05-06T04:47:50.215Z,12.55
2023-05-06T04:49:26.412Z,12.61
2023-05-06T04:51:00.688Z,12.74
2023-05-06T04:52:34.248Z,12.86
2023-05-06T04:54:07.449Z,13.21
2023-05-06T04:55:40.622Z,13.57
2023-05-06T04:57:14.336Z,13.79
2023-05-06T04:58:50.123Z,13.87
2023-05-06T05:00:26.275Z,14.00
2023-05-06T05:01:59.810Z,14.08
2023-05-06T05:03:33.410Z,14.19
2023-05-06T05:05:10.688Z,14.37
2023-05-06T05:06:44.125Z,14.49
2023-05-06T05:08:17.405Z,14.63
2023-05-06T05:09:50.869Z,14.69
2023-05-06T05:11:23.997Z,14.89
2023-05-06T05:12:57.559Z,15.03
2023-05-06T05:14:30.935Z,15.06
2023-05-06T05:16:05.853Z,15.04
2023-05-06T05:17:41.519Z,15.09
2023-05-06T05:19:14.974Z,15.12
2023-05-06T05:20:49.938Z,15.11
2023-05-06T05:22:24.439Z,15.06
2023-05-06T05:23:57.567Z,15.03
2023-05-06T05:25:30.803Z,15.04
2023-05-06T05:27:03.535Z,14.99
2023-05-06T05:28:37.224Z,14.97
2023-05-06T05:30:11.622Z,14.95
2023-05-06T05:31:45.880Z,14.95
2023-05-06T05:33:19.430Z,14.99
2023-05-06T05:34:53.203Z,15.10
2023-05-06T05:36:28.009Z,15.27
2023-05-06T05:38:01.254Z,15.30
2023-05-06T05:39:35.084Z,15.45
2023-05-06T05:41:07.959Z,15.50
2023-05-06T05:42:41.759Z,15.52
2023-05-06T05:44:23.613Z,15.52
2023-05-06T05:45:56.877Z,15.52
2023-05-06T05:47:30.415Z,15.46
2023-05-06T05:49:03.760Z,15.31
2023-05-06T05:50:37.143Z,15.18
2023-05-06T05:52:12.881Z,15.14
2023-05-06T05:53:46.535Z,15.11
2023-05-06T05:55:21.071Z,15.05
2023-05-06T05:56:53.694Z,15.02
2023-05-06T05:58:27.920Z,15.03
2023-05-06T06:00:04.834Z,15.08
2023-05-06T06:01:39.137Z,15.06
2023-05-06T06:03:13.795Z,15.04
2023-05-06T06:04:47.015Z,15.07
2023-05-06T06:06:20.503Z,15.01
2023-05-06T06:07:55.472Z,14.97
2023-05-06T06:09:31.302Z,14.95
2023-05-06T06:11:06.361Z,14.94
2023-05-06T06:12:44.790Z,14.98
2023-05-06T06:14:21.537Z,14.98
2023-05-06T06:15:57.037Z,14.97
2023-05-06T06:17:30.289Z,14.95
2023-05-06T06:19:05.013Z,14.95
2023-05-06T06:20:38.258Z,14.98
2023-05-06T06:22:11.453Z,14.97
2023-05-06T06:23:46.557Z,14.99
2023-05-06T06:25:19.174Z,14.93
2023-05-06T06:26:52.345Z,14.89
2023-05-06T06:28:26.236Z,14.85
2023-05-06T06:29:59.932Z,14.88
2023-05-06T06:31:34.249Z,14.90
2023-05-06T06:33:07.693Z,14.86
2023-05-06T06:34:40.875Z,14.82
2023-05-06T06:36:13.996Z,14.77
2023-05-06T06:37:49.161Z,14.75
2023-05-06T06:39:23.696Z,14.85
2023-05-06T06:40:56.905Z,14.94
2023-05-06T06:42:30.125Z,15.08
2023-05-06T06:44:13.018Z,15.22
2023-05-06T06:45:48.381Z,15.39
2023-05-06T06:47:21.685Z,15.46
2023-05-06T06:48:55.281Z,15.59
2023-05-06T06:50:27.696Z,15.71
2023-05-06T06:52:00.894Z,15.84
2023-05-06T06:53:34.016Z,15.95
2023-05-06T06:55:10.205Z,16.11
2023-05-06T06:56:43.824Z,16.18
2023-05-06T06:58:15.979Z,16.11
2023-05-06T06:59:52.042Z,16.11
2023-05-06T07:01:25.205Z,16.11
2023-05-06T07:02:57.768Z,16.10
2023-05-06T07:04:31.015Z,16.09
2023-05-06T07:06:04.341Z,16.13
2023-05-06T07:07:37.579Z,16.15
2023-05-06T07:09:10.982Z,16.20
2023-05-06T07:10:44.513Z,16.36
2023-05-06T07:12:17.701Z,16.46
2023-05-06T07:13:49.827Z,16.56
2023-05-06T07:15:23.393Z,16.68
2023-05-06T07:16:56.957Z,16.89
2023-05-06T07:18:30.077Z,17.09
2023-05-06T07:20:03.265Z,17.24
2023-05-06T07:21:36.738Z,17.45
2023-05-06T07:23:09.902Z,17.61
2023-05-06T07:24:43.020Z,17.75
2023-05-06T07:26:17.592Z,17.93
2023-05-06T07:27:51.212Z,18.00
2023-05-06T07:29:24.811Z,18.17
2023-05-06T07:30:57.920Z,18.34
2023-05-06T07:32:31.245Z,18.36
2023-05-06T07:34:05.009Z,18.34
2023-05-06T07:35:39.586Z,18.39
2023-05-06T07:37:12.731Z,18.45
2023-05-06T07:38:45.856Z,18.42
2023-05-06T07:40:19.243Z,18.65
2023-05-06T07:41:53.737Z,18.83
2023-05-06T07:43:26.801Z,19.13
2023-05-06T07:44:59.957Z,19.27
2023-05-06T07:46:33.640Z,19.44
2023-05-06T07:48:07.333Z,19.41
2023-05-06T07:49:39.683Z,19.40
2023-05-06T07:51:12.807Z,19.53
2023-05-06T07:52:46.360Z,19.68
2023-05-06T07:54:19.875Z,19.86
2023-05-06T07:55:53.089Z,20.03
2023-05-06T07:57:27.782Z,20.32
2023-05-06T07:59:01.401Z,20.59
2023-05-06T08:00:34.645Z,20.59
2023-05-06T08:02:08.257Z,20.47
2023-05-06T08:03:41.540Z,20.53
2023-05-06T08:05:15.186Z,20.61
2023-05-06T08:06:48.294Z,20.75
2023-05-06T08:08:22.494Z,20.73
2023-05-06T08:09:56.616Z,20.74
2023-05-06T08:11:30.012Z,20.76
2023-05-06T08:13:04.762Z,21.04
2023-05-06T08:14:37.938Z,21.28
2023-05-06T08:16:11.289Z,21.54
2023-05-06T08:17:44.624Z,21.82
2023-05-06T08:19:17.939Z,22.04
2023-05-06T08:20:51.335Z,22.24
2023-05-06T08:22:24.528Z,22.46
2023-05-06T08:23:57.832Z,22.87
2023-05-06T08:25:31.076Z,23.25
2023-05-06T08:27:04.479Z,23.62
2023-05-06T08:28:39.070Z,23.76
2023-05-06T08:30:13.652Z,23.83
2023-05-06T08:31:46.938Z,23.88
2023-05-06T08:33:20.472Z,23.90
2023-05-06T08:34:54.233Z,24.02
2023-05-06T08:36:27.692Z,24.14
2023-05-06T08:38:00.968Z,24.39
2023-05-06T08:39:34.207Z,24.71
2023-05-06T08:41:10.640Z,25.00
2023-05-06T08:42:46.730Z,25.19
2023-05-06T08:44:25.099Z,25.18
2023-05-06T08:45:58.300Z,25.08
2023-05-06T08:47:31.721Z,24.71
2023-05-06T08:49:05.020Z,24.82
2023-05-06T08:50:42.852Z,24.76
2023-05-06T08:52:16.542Z,24.96
2023-05-06T08:53:51.677Z,25.38
2023-05-06T08:55:27.929Z,25.78
2023-05-06T08:57:03.798Z,26.19
2023-05-06T08:58:38.639Z,26.34
2023-05-06T09:00:15.200Z,26.21
2023-05-06T09:01:49.816Z,25.98
2023-05-06T09:03:23.619Z,26.22
2023-05-06T09:04:57.606Z,26.35
2023-05-06T09:06:31.448Z,26.05
2023-05-06T09:08:04.775Z,25.69
2023-05-06T09:09:38.013Z,25.62
2023-05-06T09:11:24.720Z,25.90
2023-05-06T09:12:58.236Z,25.96
2023-05-06T09:14:31.861Z,25.60
2023-05-06T09:16:07.403Z,25.47
2023-05-06T09:17:40.686Z,24.96
2023-05-06T09:19:14.409Z,24.77
2023-05-06T09:20:49.922Z,24.84
2023-05-06T09:22:24.145Z,24.82
2023-05-06T09:23:56.496Z,24.66
2023-05-06T09:25:30.784Z,24.26
2023-05-06T09:27:04.318Z,23.87
2023-05-06T09:28:37.735Z,23.55
2023-05-06T09:30:12.707Z,23.17
2023-05-06T09:31:48.590Z,22.97
2023-05-06T09:33:23.204Z,23.06
2023-05-06T09:34:56.632Z,22.97
2023-05-06T09:36:30.174Z,23.11
2023-05-06T09:38:05.909Z,23.08
2023-05-06T09:39:40.519Z,22.81
2023-05-06T09:41:14.702Z,22.66
2023-05-06T09:42:50.574Z,22.43
2023-05-06T09:44:24.069Z,22.31
2023-05-06T09:45:58.020Z,22.31
2023-05-06T09:47:35.657Z,22.37
2023-05-06T09:49:10.299Z,22.39
2023-05-06T09:50:44.863Z,22.40
2023-05-06T09:52:19.666Z,22.64
2023-05-06T09:53:53.673Z,22.73
2023-05-06T09:55:27.669Z,22.67
2023-05-06T09:57:01.753Z,22.73
2023-05-06T09:58:36.026Z,22.69
2023-05-06T10:00:13.228Z,22.57
2023-05-06T10:01:48.170Z,22.47
2023-05-06T10:03:23.526Z,22.24
2023-05-06T10:05:01.125Z,22.16
2023-05-06T10:06:39.452Z,22.18
2023-05-06T10:08:18.472Z,22.36
2023-05-06T10:09:52.348Z,22.40
2023-05-06T10:11:27.660Z,22.29
2023-05-06T10:13:03.749Z,22.44
2023-05-06T10:14:37.289Z,22.53
2023-05-06T10:16:14.565Z,22.45
2023-05-06T10:17:52.850Z,22.33
2023-05-06T10:19:28.016Z,22.17
2023-05-06T10:21:01.857Z,22.12
2023-05-06T10:22:42.545Z,22.14
2023-05-06T10:24:20.503Z,22.22
2023-05-06T10:25:57.582Z,22.24
2023-05-06T10:27:34.158Z,22.45
2023-05-06T10:29:11.149Z,22.67
2023-05-06T10:30:45.580Z,22.96
2023-05-06T10:32:22.447Z,23.07
2023-05-06T10:33:57.331Z,23.08
2023-05-06T10:35:43.587Z,23.00
2023-05-06T10:37:17.648Z,22.96
2023-05-06T10:38:54.928Z,22.55
2023-05-06T10:40:28.234Z,22.31
2023-05-06T10:42:01.949Z,22.12
2023-05-06T10:43:36.474Z,22.17
2023-05-06T10:45:11.054Z,22.33
2023-05-06T10:46:58.591Z,22.51
2023-05-06T10:48:32.902Z,22.83
2023-05-06T10:50:23.545Z,22.86
2023-05-06T10:52:14.803Z,22.97
2023-05-06T10:54:03.257Z,22.81
2023-05-06T10:55:38.925Z,22.52
2023-05-06T10:57:15.162Z,22.45
2023-05-06T10:58:49.308Z,22.41
2023-05-06T11:00:23.213Z,22.36
2023-05-06T11:01:58.651Z,22.30
2023-05-06T11:03:32.670Z,22.11
2023-05-06T11:05:06.737Z,21.94
2023-05-06T11:06:42.871Z,21.76
2023-05-06T11:08:23.249Z,21.80
2023-05-06T11:09:58.374Z,21.73
2023-05-06T11:11:52.003Z,21.64
2023-05-06T11:13:27.794Z,21.68
2023-05-06T11:15:21.043Z,21.85
2023-05-06T11:16:56.749Z,21.90
2023-05-06T11:18:44.497Z,21.97
2023-05-06T11:20:22.101Z,22.14
2023-05-06T11:21:57.669Z,22.21
2023-05-06T11:24:12.864Z,22.18
2023-05-06T11:25:47.341Z,22.18
2023-05-06T11:27:22.618Z,22.26
2023-05-06T11:28:55.913Z,22.36
2023-05-06T11:30:29.242Z,22.40
2023-05-06T11:32:02.526Z,22.48
2023-05-06T11:33:36.563Z,22.52
2023-05-06T11:35:10.109Z,22.68
2023-05-06T11:36:52.365Z,22.82
2023-05-06T11:38:25.480Z,22.94
2023-05-06T11:40:00.075Z,23.05
2023-05-06T11:41:32.275Z,22.98
2023-05-06T11:43:12.597Z,22.83
2023-05-06T11:44:45.736Z,22.72
2023-05-06T11:46:19.115Z,22.75
2023-05-06T11:47:55.712Z,22.78
2023-05-06T11:49:29.366Z,22.86
2023-05-06T11:51:02.423Z,22.92
2023-05-06T11:52:36.882Z,23.07
2023-05-06T11:54:11.341Z,23.16
2023-05-06T11:55:46.437Z,23.25
2023-05-06T11:57:21.691Z,23.36
2023-05-06T11:58:54.897Z,23.47
2023-05-06T12:00:28.150Z,23.29
2023-05-06T12:02:03.029Z,23.14
2023-05-06T12:03:36.768Z,22.89
2023-05-06T12:05:10.948Z,22.88
2023-05-06T12:06:43.222Z,22.92
2023-05-06T12:08:26.535Z,22.86
2023-05-06T12:10:04.167Z,23.04
2023-05-06T12:11:40.907Z,23.22
2023-05-06T12:13:16.250Z,23.19
2023-05-06T12:14:51.448Z,23.12
2023-05-06T12:16:25.748Z,23.16
2023-05-06T12:17:59.468Z,23.23
2023-05-06T12:19:33.982Z,23.32
2023-05-06T12:21:07.738Z,23.43
2023-05-06T12:22:42.366Z,23.51
2023-05-06T12:24:16.016Z,23.57
2023-05-06T12:26:02.002Z,23.51
2023-05-06T12:27:37.543Z,23.47
2023-05-06T12:29:11.216Z,23.36
2023-05-06T12:30:45.484Z,23.19
2023-05-06T12:32:18.610Z,23.27
2023-05-06T12:33:52.713Z,23.22
2023-05-06T12:35:27.455Z,23.11
2023-05-06T12:37:00.672Z,23.01
2023-05-06T12:38:33.186Z,22.94
2023-05-06T12:40:17.498Z,23.03
2023-05-06T12:41:50.603Z,23.16
2023-05-06T12:43:32.460Z,23.26
2023-05-06T12:45:15.511Z,23.36
2023-05-06T12:46:52.909Z,23.41
2023-05-06T12:48:26.341Z,23.36
2023-05-06T12:50:00.355Z,23.45
2023-05-06T12:51:33.500Z,23.62
2023-05-06T12:53:08.469Z,23.64
2023-05-06T12:54:41.795Z,23.80
2023-05-06T12:56:15.074Z,23.92
2023-05-06T12:57:49.281Z,24.02
2023-05-06T12:59:26.064Z,24.08
2023-05-06T13:00:59.349Z,24.04
2023-05-06T13:02:32.879Z,23.71
2023-05-06T13:04:06.550Z,23.51
2023-05-06T13:05:39.924Z,23.35
2023-05-06T13:07:13.112Z,23.00
2023-05-06T13:08:45.276Z,22.79
2023-05-06T13:10:18.434Z,22.63
2023-05-06T13:11:52.233Z,22.60
2023-05-06T13:13:26.071Z,22.56
2023-05-06T13:15:00.608Z,22.55
2023-05-06T13:16:35.012Z,22.64
2023-05-06T13:18:08.493Z,22.65
2023-05-06T13:19:42.268Z,22.62
2023-05-06T13:21:15.896Z,22.53
2023-05-06T13:22:54.901Z,22.55
2023-05-06T13:24:28.692Z,22.48
2023-05-06T13:26:06.066Z,22.48
2023-05-06T13:27:39.572Z,22.55
2023-05-06T13:29:12.738Z,22.60
2023-05-06T13:30:47.560Z,22.66
2023-05-06T13:32:20.960Z,22.77
2023-05-06T13:33:54.328Z,22.83
2023-05-06T13:35:27.470Z,22.94
2023-05-06T13:37:01.109Z,22.91
2023-05-06T13:38:34.343Z,22.90
2023-05-06T13:40:08.901Z,22.85
2023-05-06T13:41:42.178Z,22.85
2023-05-06T13:43:15.799Z,22.87
2023-05-06T13:44:49.184Z,22.92
2023-05-06T13:46:23.737Z,23.06
2023-05-06T13:47:56.980Z,23.10
2023-05-06T13:49:30.282Z,23.13
2023-05-06T13:51:03.577Z,23.13
2023-05-06T13:52:36.765Z,23.17
2023-05-06T13:54:10.216Z,23.25
2023-05-06T13:55:44.405Z,23.36
2023-05-06T13:57:18.997Z,23.44
2023-05-06T13:58:53.268Z,23.43
2023-05-06T14:00:26.896Z,23.48
2023-05-06T14:02:01.863Z,23.54
2023-05-06T14:03:35.422Z,23.50
2023-05-06T14:05:09.927Z,23.41
2023-05-06T14:06:43.501Z,23.38
2023-05-06T14:08:16.744Z,23.35
2023-05-06T14:09:49.994Z,23.32
2023-05-06T14:11:23.140Z,23.23
2023-05-06T14:12:56.347Z,23.18
2023-05-06T14:14:29.870Z,23.11
2023-05-06T14:16:03.635Z,23.07
2023-05-06T14:17:39.961Z,23.02
2023-05-06T14:19:13.175Z,22.97
2023-05-06T14:20:46.590Z,22.96
2023-05-06T14:22:20.167Z,23.06
2023-05-06T14:23:53.264Z,23.24
2023-05-06T14:25:28.049Z,23.45
2023-05-06T14:27:01.646Z,23.50
2023-05-06T14:28:34.997Z,23.65
2023-05-06T14:30:09.955Z,23.87
2023-05-06T14:31:43.221Z,23.83
2023-05-06T14:33:18.087Z,23.78
2023-05-06T14:34:51.568Z,23.71
2023-05-06T14:36:24.730Z,23.77
2023-05-06T14:37:57.814Z,23.79
2023-05-06T14:39:31.081Z,23.87
2023-05-06T14:41:04.762Z,23.88
2023-05-06T14:42:38.390Z,23.84
2023-05-06T14:44:11.587Z,23.73
2023-05-06T14:45:45.045Z,23.69
2023-05-06T14:47:19.040Z,23.74
2023-05-06T14:48:53.647Z,23.79
2023-05-06T14:50:27.172Z,23.83
2023-05-06T14:52:00.690Z,23.81
2023-05-06T14:53:34.414Z,23.78
2023-05-06T14:55:10.380Z,23.77
2023-05-06T14:56:45.551Z,23.68
2023-05-06T14:58:19.077Z,23.55
2023-05-06T14:59:52.777Z,23.52
2023-05-06T15:01:25.988Z,23.38
2023-05-06T15:02:59.520Z,23.29
2023-05-06T15:04:34.369Z,23.19
2023-05-06T15:06:07.869Z,23.11
2023-05-06T15:07:41.291Z,23.04
2023-05-06T15:09:14.546Z,23.01
2023-05-06T15:10:49.601Z,22.94
2023-05-06T15:12:21.910Z,22.86
2023-05-06T15:13:55.570Z,22.77
2023-05-06T15:15:29.080Z,22.73
2023-05-06T15:17:02.769Z,22.69
2023-05-06T15:18:38.141Z,22.62
2023-05-06T15:20:14.353Z,22.56
2023-05-06T15:21:47.461Z,22.51
2023-05-06T15:23:21.673Z,22.52
2023-05-06T15:24:54.954Z,22.48
2023-05-06T15:26:28.088Z,22.43
2023-05-06T15:28:01.218Z,22.40
2023-05-06T15:29:34.605Z,22.37
2023-05-06T15:31:08.506Z,22.31
2023-05-06T15:32:41.759Z,22.31
2023-05-06T15:34:15.374Z,22.25
2023-05-06T15:35:50.569Z,22.24
2023-05-06T15:37:23.988Z,22.25
2023-05-06T15:39:00.122Z,22.25
2023-05-06T15:40:33.751Z,22.21
2023-05-06T15:42:07.240Z,22.22
2023-05-06T15:43:40.883Z,22.18
2023-05-06T15:45:14.073Z,22.19
2023-05-06T15:46:47.327Z,22.20
2023-05-06T15:48:20.590Z,22.21
2023-05-06T15:49:55.065Z,22.22
2023-05-06T15:51:29.893Z,22.26
2023-05-06T15:53:03.535Z,22.28
2023-05-06T15:54:37.709Z,22.21
2023-05-06T15:56:18.277Z,22.20
2023-05-06T15:57:53.704Z,22.16
2023-05-06T15:59:27.064Z,22.13
2023-05-06T16:01:00.627Z,22.10
2023-05-06T16:02:34.068Z,22.07
2023-05-06T16:04:07.360Z,22.02
2023-05-06T16:05:40.993Z,21.98
2023-05-06T16:07:15.864Z,21.94
2023-05-06T16:08:48.226Z,21.93
2023-05-06T16:10:21.530Z,21.89
2023-05-06T16:11:55.215Z,21.82
2023-05-06T16:13:28.497Z,21.78
2023-05-06T16:15:01.941Z,21.75
2023-05-06T16:16:35.196Z,21.70
2023-05-06T16:18:08.557Z,21.59
2023-05-06T16:19:42.056Z,21.54
2023-05-06T16:21:15.218Z,21.51
2023-05-06T16:22:52.450Z,21.49
2023-05-06T16:24:25.645Z,21.47
2023-05-06T16:26:01.145Z,21.45
2023-05-06T16:27:35.520Z,21.39
2023-05-06T16:29:08.715Z,21.41
2023-05-06T16:30:44.684Z,21.42
2023-05-06T16:32:18.310Z,21.36
2023-05-06T16:33:51.406Z,21.35
2023-05-06T16:35:23.736Z,21.34
2023-05-06T16:36:57.391Z,21.28
2023-05-06T16:38:32.289Z,21.23
2023-05-06T16:40:06.239Z,21.24
2023-05-06T16:41:39.298Z,21.24
2023-05-06T16:43:12.426Z,21.26
2023-05-06T16:44:46.564Z,21.26
2023-05-06T16:46:20.560Z,21.26
2023-05-06T16:47:55.311Z,21.19
2023-05-06T16:49:28.869Z,21.14
2023-05-06T16:51:02.330Z,21.08
2023-05-06T16:52:35.463Z,21.07
2023-05-06T16:54:10.043Z,21.03
2023-05-06T16:55:47.929Z,20.96
2023-05-06T16:57:21.362Z,20.92
2023-05-06T16:58:54.516Z,20.90
2023-05-06T17:00:28.171Z,20.89
2023-05-06T17:02:01.303Z,20.88
2023-05-06T17:03:37.327Z,20.84
2023-05-06T17:05:10.744Z,20.77
2023-05-06T17:06:43.938Z,20.49
2023-05-06T17:08:17.269Z,20.39
2023-05-06T17:09:52.203Z,20.39
2023-05-06T17:11:25.344Z,20.32
2023-05-06T17:12:59.302Z,20.28
2023-05-06T17:14:32.669Z,20.28
2023-05-06T17:16:06.758Z,20.23
2023-05-06T17:17:40.836Z,20.23
2023-05-06T17:19:14.116Z,20.25
2023-05-06T17:20:54.830Z,20.27
2023-05-06T17:22:29.709Z,20.24
2023-05-06T17:24:02.813Z,20.24
2023-05-06T17:25:37.360Z,20.19
2023-05-06T17:27:10.920Z,20.16
2023-05-06T17:28:44.251Z,20.08
2023-05-06T17:30:17.339Z,20.00
2023-05-06T17:31:50.781Z,19.95
2023-05-06T17:33:23.976Z,19.95
2023-05-06T17:34:57.239Z,19.92
2023-05-06T17:36:30.456Z,19.88
2023-05-06T17:38:04.036Z,19.87
2023-05-06T17:39:38.312Z,19.87
2023-05-06T17:41:13.248Z,19.80
2023-05-06T17:42:46.399Z,19.78
2023-05-06T17:44:19.638Z,19.73
2023-05-06T17:45:53.093Z,19.69
2023-05-06T17:47:30.316Z,19.64
2023-05-06T17:49:03.651Z,19.64
2023-05-06T17:50:36.887Z,19.51
2023-05-06T17:52:10.075Z,19.32
2023-05-06T17:53:43.646Z,19.18
2023-05-06T17:55:17.582Z,19.08
2023-05-06T17:56:53.106Z,19.07
2023-05-06T17:58:26.417Z,19.09
2023-05-06T17:59:59.738Z,19.12
2023-05-06T18:01:32.265Z,19.10
2023-05-06T18:03:05.835Z,19.02
2023-05-06T18:04:39.450Z,18.98
2023-05-06T18:06:13.095Z,18.88
2023-05-06T18:07:47.821Z,18.86
2023-05-06T18:09:20.956Z,18.86
2023-05-06T18:10:54.156Z,18.85
2023-05-06T18:12:28.975Z,18.85
2023-05-06T18:14:02.136Z,18.87
2023-05-06T18:15:35.238Z,18.86
2023-05-06T18:17:08.505Z,18.85
2023-05-06T18:18:41.936Z,18.86
2023-05-06T18:20:15.282Z,18.77
2023-05-06T18:21:48.489Z,18.77
2023-05-06T18:23:21.868Z,18.73
2023-05-06T18:24:55.615Z,18.66
2023-05-06T18:28:09.750Z,18.50
2023-05-06T18:29:42.859Z,18.51
2023-05-06T18:31:16.230Z,18.49
2023-05-06T18:32:51.356Z,18.45
2023-05-06T18:34:25.556Z,18.43
2023-05-06T18:35:59.121Z,18.40
2023-05-06T18:37:32.779Z,18.40
2023-05-06T18:39:06.198Z,18.41
2023-05-06T18:40:39.287Z,18.43
2023-05-06T18:42:12.621Z,18.48
2023-05-06T18:43:47.194Z,18.50
2023-05-06T18:45:20.504Z,18.52
2023-05-06T18:46:53.708Z,18.55
2023-05-06T18:48:27.126Z,18.53
2023-05-06T18:50:00.854Z,18.56
2023-05-06T18:51:34.004Z,18.58
2023-05-06T18:53:07.191Z,18.63
2023-05-06T18:54:41.062Z,18.67
2023-05-06T18:56:15.262Z,18.71
2023-05-06T18:57:48.357Z,18.72
2023-05-06T18:59:22.925Z,18.72
2023-05-06T19:00:56.121Z,18.68
2023-05-06T19:02:29.378Z,18.71
2023-05-06T19:04:02.629Z,18.68
2023-05-06T19:05:37.936Z,18.66
2023-05-06T19:07:11.342Z,18.60
2023-05-06T19:08:44.805Z,18.59
2023-05-06T19:10:17.964Z,18.55
2023-05-06T19:11:51.178Z,18.52
2023-05-06T19:13:24.544Z,18.52
2023-05-06T19:14:59.144Z,18.52
2023-05-06T19:16:32.415Z,18.55
2023-05-06T19:18:05.878Z,18.54
2023-05-06T19:19:40.805Z,18.53
2023-05-06T19:21:15.033Z,18.52
2023-05-06T19:22:48.162Z,18.49
2023-05-06T19:24:21.399Z,18.47
2023-05-06T19:25:54.534Z,18.45
2023-05-06T19:27:27.947Z,18.48
2023-05-06T19:29:01.054Z,18.39
2023-05-06T19:30:36.228Z,18.37
2023-05-06T19:32:10.148Z,18.32
2023-05-06T19:33:44.564Z,18.29
2023-05-06T19:35:17.709Z,18.21
2023-05-06T19:36:50.777Z,18.14
2023-05-06T19:38:24.052Z,18.11
2023-05-06T19:39:57.941Z,18.09
2023-05-06T19:41:31.168Z,18.07
2023-05-06T19:43:04.826Z,17.97
2023-05-06T19:44:37.932Z,17.87
2023-05-06T19:46:13.776Z,17.80
2023-05-06T19:47:49.245Z,17.70
2023-05-06T19:49:22.397Z,17.64
2023-05-06T19:50:54.637Z,17.63
2023-05-06T19:52:30.699Z,17.58
2023-05-06T19:54:03.878Z,17.53
2023-05-06T19:55:37.584Z,17.46
2023-05-06T19:57:10.764Z,17.39
2023-05-06T19:58:44.602Z,17.35
2023-05-06T20:00:19.993Z,17.30
2023-05-06T20:01:54.680Z,17.34
2023-05-06T20:03:28.053Z,17.26
2023-05-06T20:05:01.750Z,17.23
2023-05-06T20:06:34.895Z,17.17
2023-05-06T20:08:10.947Z,17.10
2023-05-06T20:09:44.569Z,17.05
2023-05-06T20:11:17.996Z,17.02
2023-05-06T20:12:51.275Z,16.90
2023-05-06T20:14:24.540Z,16.81
2023-05-06T20:15:57.774Z,16.74
2023-05-06T20:17:32.514Z,16.66
2023-05-06T20:19:05.721Z,16.60